This is the latest recevied weather packets stored in our database for station/object G0AMO. If no packets are shown the sender has not sent any weather packets the latest 10 day(s).
| Time | Temp. | Humidity | Pressure | Rain* | Wind** | Luminosity | Snow |
|---|---|---|---|---|---|---|---|
| 1777770005 | 10.56° C | 96% | 1011.2 hPa | 0 mm | - | 0 W/m² | - |
| 1777769404 | 10.56° C | 95% | 1010.5 hPa | 0 mm | - | 0 W/m² | - |
| 1777768804 | 11.11° C | 95% | 1011.2 hPa | 0 mm | - | 0 W/m² | - |
| 1777768505 | 11.11° C | 95% | 1010.8 hPa | 0 mm | - | 0 W/m² | - |
| 1777765805 | 11.67° C | 94% | 1011.9 hPa | 0 mm | - | 0 W/m² | - |
| 1777764904 | 11.67° C | 94% | 1011.2 hPa | 0 mm | - | 0 W/m² | - |
| 1777764605 | 11.67° C | 94% | 1011.5 hPa | 0 mm | - | 0 W/m² | - |
| 1777757706 | 12.22° C | 96% | 1011.9 hPa | 0 mm | - | 0 W/m² | - |
| 1777756505 | 12.78° C | 95% | 1011.9 hPa | 0 mm | - | 0 W/m² | - |
| 1777752304 | 13.33° C | 95% | 1011.9 hPa | 0 mm | - | 0 W/m² | - |
| 1777751105 | 13.33° C | 94% | 1012.5 hPa | 0 mm | - | 0 W/m² | - |
| 1777750804 | 13.33° C | 94% | 1011.9 hPa | 0 mm | - | 0 W/m² | - |
| 1777749904 | 13.33° C | 94% | 1012.2 hPa | 0 mm | - | 0 W/m² | - |
| 1777748404 | 13.33° C | 93% | 1012.2 hPa | 0 mm | - | 0 W/m² | - |
| 1777744505 | 13.89° C | 91% | 1012.1 hPa | 0 mm | - | 97 W/m² | - |
| 1777744204 | 13.89° C | 92% | 1012.5 hPa | 0 mm | - | 115 W/m² | - |
| 1777740904 | 13.33° C | 93% | 1013.2 hPa | 0 mm | - | 334 W/m² | - |
| 1777739104 | 13.33° C | 94% | 1013.5 hPa | 1.27 mm | - | 468 W/m² | - |
| 1777738204 | 13.33° C | 94% | 1012.9 hPa | 2.29 mm | - | 538 W/m² | - |
| 1777734904 | 13.33° C | 88% | 1014.2 hPa | 1.02 mm | - | 789 W/m² | - |
| 1777731304 | 18.89° C | 62% | 1014.6 hPa | 0 mm | - | 1024 W/m² | - |
| 1777727404 | 20° C | 54% | 1015.6 hPa | 0 mm | - | 1183 W/m² | - |
| 1777725004 | 18.33° C | 60% | 1015.9 hPa | 0 mm | - | 1215 W/m² | - |
| 1777724104 | 18.89° C | 61% | 1016.3 hPa | 0 mm | - | 1213 W/m² | - |
| 1777717804 | 16.67° C | 72% | 1017.9 hPa | 0 mm | - | 997 W/m² | - |
* Rain latest hour (hover to see other rain measurements)
** Current wind speed in m/s (hover to see current wind gust speed)